TAF LFBX
METAR LFBX
LFBX 091100Z AUTO 12003KT 080V160 9999 OVC007 05/04 Q1014=
LFBX 091030Z AUTO VRB03KT 9999 OVC007 04/03 Q1014=
LFBX 091000Z AUTO VRB03KT 9999 OVC005 04/03 Q1014=
LFBX 090930Z AUTO VRB02KT 9999 OVC005 04/03 Q1014=
LFBX 090900Z AUTO VRB02KT 9999 OVC004 03/03 Q1014=
WC LFBX
WS LFBX
WV LFBX